Time;durP1;ratioP1;P1;durP2;ratioP2;P2;SDS_P1;SDS_P2;PMS_P1;PMS_P2;Temp;Humidity;BMP_temperature;BMP_pressure;BME280_temperature;BME280_humidity;BME280_pressure;Samples;Min_cycle;Max_cycle;Signal;HPM_P1;HPM_P2
2021/09/30 00:01:23;;;;;;;5.43;2.43;;;14.70;99.90;;;;;;6222037;23;20173;-94
2021/09/30 00:06:50;;;;;;;7.97;2.20;;;14.70;99.90;;;;;;6233737;23;20178;-95
2021/09/30 00:09:22;;;;;;;5.63;1.90;;;14.60;99.90;;;;;;6231392;23;20165;-93
2021/09/30 00:12:00;;;;;;;3.63;1.93;;;14.60;99.90;;;;;;6234271;23;20228;-95
2021/09/30 00:14:42;;;;;;;7.00;1.90;;;14.70;99.90;;;;;;6220685;23;20172;-94
2021/09/30 00:34:17;;;;;;;5.63;2.47;;;14.40;99.90;;;;;;6220947;23;20176;-93
2021/09/30 00:40:01;;;;;;;3.47;1.60;;;14.20;99.90;;;;;;6224386;23;20176;-93
2021/09/30 00:48:20;;;;;;;6.30;2.20;;;14.10;99.90;;;;;;6204636;23;20180;-94
2021/09/30 00:51:04;;;;;;;3.47;1.90;;;14.10;99.90;;;;;;6228915;23;20244;-95
2021/09/30 00:53:52;;;;;;;5.43;2.03;;;14.10;99.90;;;;;;6233670;23;20167;-94
2021/09/30 01:20:31;;;;;;;7.40;2.33;;;13.80;99.90;;;;;;6226538;23;20638;-96
2021/09/30 01:46:49;;;;;;;5.70;2.47;;;13.70;99.90;;;;;;6205319;23;20177;-94
2021/09/30 02:21:27;;;;;;;5.13;2.97;;;13.60;99.90;;;;;;6152493;23;20177;-96
2021/09/30 02:24:11;;;;;;;5.10;2.37;;;13.60;99.90;;;;;;6207145;23;20177;-95
2021/09/30 02:27:01;;;;;;;4.60;2.47;;;13.60;99.90;;;;;;6210397;23;20208;-96
2021/09/30 02:29:55;;;;;;;2.80;2.07;;;13.50;99.90;;;;;;6207810;23;20177;-96
2021/09/30 02:58:15;;;;;;;3.27;1.60;;;13.70;99.90;;;;;;6234302;23;20172;-95
2021/09/30 03:00:56;;;;;;;3.00;1.90;;;13.70;99.90;;;;;;6237785;23;20179;-96
2021/09/30 03:03:33;;;;;;;2.23;1.50;;;13.70;99.90;;;;;;6230581;23;20172;-96
2021/09/30 03:06:06;;;;;;;5.40;1.70;;;13.70;99.90;;;;;;6227065;23;20164;-96
2021/09/30 03:11:13;;;;;;;3.30;1.60;;;13.70;99.90;;;;;;6271874;22;20239;-94
2021/09/30 03:13:50;;;;;;;3.27;1.57;;;13.70;99.90;;;;;;6271292;22;20175;-95
2021/09/30 03:16:29;;;;;;;2.23;1.43;;;13.70;99.90;;;;;;6261462;22;20209;-96
2021/09/30 03:19:16;;;;;;;2.17;1.50;;;13.70;99.90;;;;;;6268728;22;20223;-96
2021/09/30 03:22:13;;;;;;;2.20;1.50;;;13.80;99.90;;;;;;6261105;22;20172;-95
2021/09/30 03:27:12;;;;;;;2.90;1.63;;;13.80;99.90;;;;;;6292163;22;20179;-95
2021/09/30 03:30:03;;;;;;;2.23;1.40;;;13.90;99.90;;;;;;6296265;22;20230;-96
2021/09/30 03:32:35;;;;;;;3.20;1.70;;;13.90;99.90;;;;;;6295496;22;20214;-95
2021/09/30 03:35:09;;;;;;;5.13;1.97;;;13.90;99.90;;;;;;6296235;22;20214;-94
2021/09/30 03:37:43;;;;;;;3.20;1.70;;;13.90;99.90;;;;;;6295373;22;20168;-95
2021/09/30 03:40:15;;;;;;;3.07;1.87;;;13.80;99.90;;;;;;6289305;22;20171;-95
2021/09/30 03:42:49;;;;;;;3.87;1.80;;;13.90;99.90;;;;;;6294632;22;20536;-96
2021/09/30 03:45:25;;;;;;;1.60;1.50;;;13.90;99.90;;;;;;6294121;22;20163;-96
2021/09/30 03:48:00;;;;;;;1.90;1.60;;;13.90;99.90;;;;;;6296752;22;20170;-95
2021/09/30 03:51:06;;;;;;;1.83;1.43;;;13.90;99.90;;;;;;6295582;22;20272;-95
2021/09/30 04:01:52;;;;;;;2.53;1.60;;;14.00;99.90;;;;;;6303610;22;20174;-96
2021/09/30 04:04:26;;;;;;;4.00;1.50;;;14.00;99.90;;;;;;6300150;22;20171;-95
2021/09/30 04:07:01;;;;;;;3.00;1.90;;;14.00;99.90;;;;;;6303681;22;20158;-95
2021/09/30 04:09:36;;;;;;;3.47;1.90;;;14.00;99.90;;;;;;6300017;22;20169;-96
2021/09/30 04:12:11;;;;;;;2.77;1.60;;;14.10;99.90;;;;;;6298981;22;20233;-95
2021/09/30 04:25:54;;;;;;;2.73;1.97;;;14.20;99.90;;;;;;6291921;22;20238;-94
2021/09/30 04:31:11;;;;;;;2.80;2.00;;;14.30;99.90;;;;;;6284238;22;20175;-94
2021/09/30 04:33:46;;;;;;;2.53;1.83;;;14.30;99.90;;;;;;6283369;22;20191;-95
2021/09/30 04:36:18;;;;;;;3.50;2.00;;;14.30;99.90;;;;;;6282597;22;20174;-95
2021/09/30 04:38:50;;;;;;;4.57;1.97;;;14.30;99.90;;;;;;6282776;22;20195;-95
2021/09/30 04:41:23;;;;;;;3.93;2.10;;;14.40;99.90;;;;;;6284239;22;20175;-95
2021/09/30 04:43:56;;;;;;;2.30;2.00;;;14.30;99.90;;;;;;6289490;22;20512;-95
2021/09/30 04:46:31;;;;;;;2.50;1.80;;;14.40;99.90;;;;;;6285654;22;20183;-96
2021/09/30 04:49:33;;;;;;;4.70;1.97;;;14.40;99.90;;;;;;6286253;22;20178;-95
2021/09/30 04:52:07;;;;;;;3.00;2.00;;;14.40;99.90;;;;;;6286344;22;20242;-95
2021/09/30 04:54:39;;;;;;;2.70;1.87;;;14.50;99.90;;;;;;6285812;22;20186;-96
2021/09/30 04:57:13;;;;;;;4.57;1.77;;;14.50;99.90;;;;;;6284572;22;20628;-96
2021/09/30 04:59:46;;;;;;;3.23;2.20;;;14.50;99.90;;;;;;6292430;22;20190;-96
2021/09/30 05:02:18;;;;;;;2.63;1.77;;;14.60;99.90;;;;;;6292120;22;20179;-95
2021/09/30 05:04:51;;;;;;;3.23;1.90;;;14.60;99.90;;;;;;6294002;22;20163;-95
2021/09/30 05:07:26;;;;;;;4.73;1.77;;;14.70;99.90;;;;;;6295388;22;20202;-95
2021/09/30 05:10:03;;;;;;;2.07;1.70;;;14.70;99.90;;;;;;6290432;22;20179;-95
2021/09/30 05:12:35;;;;;;;2.37;1.57;;;14.80;99.90;;;;;;6283776;22;20240;-94
2021/09/30 05:15:07;;;;;;;4.87;1.73;;;14.80;99.90;;;;;;6281514;22;20171;-95
2021/09/30 05:17:38;;;;;;;3.97;1.80;;;14.70;99.90;;;;;;6285387;22;20176;-95
2021/09/30 05:20:11;;;;;;;2.87;1.73;;;14.70;99.90;;;;;;6284238;22;20164;-95
2021/09/30 05:22:44;;;;;;;3.43;1.70;;;14.70;99.90;;;;;;6299796;22;20171;-96
2021/09/30 05:25:16;;;;;;;4.90;2.27;;;14.70;99.90;;;;;;6302368;22;20170;-95
2021/09/30 05:27:47;;;;;;;1.70;1.30;;;14.70;99.90;;;;;;6299693;22;20171;-95
2021/09/30 05:30:21;;;;;;;2.33;1.60;;;14.70;99.90;;;;;;6299632;22;20179;-95
2021/09/30 05:32:52;;;;;;;1.73;1.50;;;14.60;99.90;;;;;;6295155;22;20206;-95
2021/09/30 05:35:24;;;;;;;2.83;1.57;;;14.60;99.90;;;;;;6296124;22;20175;-95
2021/09/30 05:37:57;;;;;;;3.40;1.83;;;14.60;99.90;;;;;;6292833;22;20190;-95
2021/09/30 05:40:30;;;;;;;2.77;1.60;;;14.70;99.90;;;;;;6295650;22;20178;-96
2021/09/30 05:48:45;;;;;;;1.00;0.70;;;15.10;99.90;;;;;;6200252;23;20200;-96
2021/09/30 05:51:16;;;;;;;0.93;0.70;;;15.20;99.90;;;;;;6195125;23;20170;-96
2021/09/30 05:53:51;;;;;;;2.30;0.73;;;15.60;99.90;;;;;;6193501;23;20232;-95
2021/09/30 05:56:24;;;;;;;1.07;0.80;;;15.70;99.90;;;;;;6191782;23;20486;-95
2021/09/30 05:58:55;;;;;;;1.73;0.83;;;15.70;99.90;;;;;;6195653;23;20268;-96
2021/09/30 06:10:24;;;;;;;1.60;0.87;;;16.10;99.90;;;;;;6193470;23;20176;-96
2021/09/30 06:12:59;;;;;;;1.20;0.90;;;16.10;99.90;;;;;;6202953;23;20255;-95
2021/09/30 06:15:34;;;;;;;1.40;1.07;;;16.00;99.90;;;;;;6199662;23;20172;-95
2021/09/30 06:18:07;;;;;;;1.30;0.80;;;16.10;99.90;;;;;;6195476;23;20184;-95
2021/09/30 06:20:39;;;;;;;0.67;0.67;;;16.10;99.90;;;;;;6202345;23;20185;-95
2021/09/30 06:23:12;;;;;;;0.90;0.80;;;16.10;99.90;;;;;;6193619;23;20203;-96
2021/09/30 06:25:45;;;;;;;1.40;0.90;;;16.00;99.90;;;;;;6203308;23;20173;-96
2021/09/30 06:28:18;;;;;;;3.47;0.90;;;16.00;99.90;;;;;;6205840;23;20196;-94
2021/09/30 06:30:54;;;;;;;1.10;0.77;;;16.00;99.90;;;;;;6205353;23;20173;-96
2021/09/30 06:33:26;;;;;;;2.97;0.80;;;16.00;99.90;;;;;;6197202;23;20203;-95
2021/09/30 06:35:58;;;;;;;1.00;0.70;;;16.00;99.90;;;;;;6192148;23;20181;-94
2021/09/30 06:38:42;;;;;;;1.47;0.90;;;15.90;99.90;;;;;;6194484;23;20181;-94
2021/09/30 06:41:15;;;;;;;1.70;0.83;;;16.00;99.90;;;;;;6194374;23;20165;-96
2021/09/30 06:43:48;;;;;;;2.77;0.93;;;16.00;99.90;;;;;;6216991;23;20524;-96
2021/09/30 06:46:46;;;;;;;2.50;0.80;;;16.20;99.90;;;;;;6209546;23;20180;-96
2021/09/30 06:49:18;;;;;;;3.03;0.80;;;16.20;99.90;;;;;;6208472;23;20165;-96
2021/09/30 06:54:48;;;;;;;1.50;0.83;;;16.00;99.90;;;;;;6224647;23;20204;-96
2021/09/30 06:57:27;;;;;;;1.40;0.90;;;16.00;99.90;;;;;;6223713;23;20169;-96
2021/09/30 07:00:02;;;;;;;3.30;1.00;;;16.00;99.90;;;;;;6222792;23;20173;-96
2021/09/30 07:02:35;;;;;;;2.80;0.90;;;15.90;99.90;;;;;;6193302;23;20635;-95
2021/09/30 07:05:07;;;;;;;1.70;1.00;;;15.90;99.90;;;;;;6225318;23;20176;-96
2021/09/30 07:07:39;;;;;;;2.60;1.10;;;15.90;99.90;;;;;;6221148;23;20221;-96
2021/09/30 07:10:13;;;;;;;1.97;0.87;;;15.80;99.90;;;;;;6222706;23;20176;-96
2021/09/30 07:12:47;;;;;;;1.63;1.10;;;15.70;99.90;;;;;;6195754;23;20184;-95
2021/09/30 07:15:19;;;;;;;1.63;1.27;;;15.70;99.90;;;;;;6221201;23;20207;-95
2021/09/30 07:17:56;;;;;;;2.13;1.13;;;15.60;99.90;;;;;;6223101;23;20235;-95
2021/09/30 07:20:27;;;;;;;1.90;1.20;;;15.60;99.90;;;;;;6221446;23;20176;-96
2021/09/30 07:22:59;;;;;;;3.47;1.20;;;15.50;99.90;;;;;;6221260;23;20227;-95
2021/09/30 07:25:30;;;;;;;3.13;1.57;;;15.50;99.90;;;;;;6223421;23;20203;-96
2021/09/30 07:28:05;;;;;;;1.67;1.37;;;15.40;99.90;;;;;;6225216;23;20168;-95
2021/09/30 07:30:37;;;;;;;2.97;1.40;;;15.40;99.90;;;;;;6225802;23;20176;-95
2021/09/30 07:33:12;;;;;;;4.53;1.70;;;15.30;99.90;;;;;;6230477;23;20226;-94
2021/09/30 07:35:44;;;;;;;4.53;1.90;;;15.20;99.90;;;;;;6242375;23;20195;-94
2021/09/30 07:40:52;;;;;;;6.90;2.07;;;14.80;99.90;;;;;;6228104;22;20203;-95
2021/09/30 07:43:25;;;;;;;4.23;1.73;;;14.70;99.90;;;;;;6226558;23;20164;-96
2021/09/30 07:45:57;;;;;;;4.00;1.77;;;14.50;99.90;;;;;;6222088;23;20259;-96
2021/09/30 07:48:28;;;;;;;3.23;1.90;;;14.50;99.90;;;;;;6221089;23;20184;-96
2021/09/30 07:51:03;;;;;;;3.80;1.97;;;14.40;99.90;;;;;;6221978;23;20178;-96
2021/09/30 07:53:34;;;;;;;5.30;1.97;;;14.40;99.90;;;;;;6219938;23;20164;-93
2021/09/30 07:56:06;;;;;;;3.90;1.97;;;14.40;99.90;;;;;;6221887;23;20176;-93
2021/09/30 07:58:40;;;;;;;3.47;2.00;;;14.20;99.90;;;;;;6221901;23;20522;-95
2021/09/30 08:01:12;;;;;;;3.27;1.80;;;14.10;99.90;;;;;;6222002;23;20187;-94
2021/09/30 08:03:44;;;;;;;2.93;1.80;;;14.00;99.90;;;;;;6221801;23;20203;-94
2021/09/30 08:06:15;;;;;;;4.20;1.80;;;14.00;99.90;;;;;;6222367;23;20180;-94
2021/09/30 08:08:56;;;;;;;3.40;1.90;;;13.90;99.90;;;;;;6222231;23;20226;-94
2021/09/30 08:11:28;;;;;;;3.23;1.90;;;13.90;99.90;;;;;;6222084;23;20642;-95
2021/09/30 08:14:01;;;;;;;3.90;1.73;;;13.80;99.90;;;;;;6223188;23;20200;-96
2021/09/30 08:16:33;;;;;;;4.70;1.83;;;13.80;99.90;;;;;;6232807;23;20266;-92
2021/09/30 08:19:06;;;;;;;1.93;1.43;;;13.90;99.90;;;;;;6241753;23;20160;-94
2021/09/30 08:21:44;;;;;;;4.93;1.70;;;13.90;99.90;;;;;;6241692;23;20187;-94
2021/09/30 08:24:15;;;;;;;4.13;1.93;;;13.80;99.90;;;;;;6241401;23;20163;-95
2021/09/30 08:26:47;;;;;;;2.80;1.97;;;13.80;99.90;;;;;;6241543;23;20164;-93
2021/09/30 08:29:22;;;;;;;5.57;1.80;;;13.80;99.90;;;;;;6241252;23;20184;-93
2021/09/30 08:31:54;;;;;;;2.87;1.60;;;13.80;99.90;;;;;;6237271;23;20191;-93
2021/09/30 08:34:25;;;;;;;3.03;1.50;;;13.70;99.90;;;;;;6226013;23;20188;-93
2021/09/30 08:36:57;;;;;;;3.40;1.50;;;13.70;99.90;;;;;;6221027;23;20179;-94
2021/09/30 08:39:28;;;;;;;2.63;1.63;;;13.70;99.90;;;;;;6224533;23;20215;-94
2021/09/30 08:42:03;;;;;;;3.43;1.70;;;13.70;99.90;;;;;;6220308;23;20188;-94
2021/09/30 08:44:36;;;;;;;3.43;1.90;;;13.70;99.90;;;;;;6219995;23;20187;-95
2021/09/30 08:47:09;;;;;;;2.33;1.60;;;13.70;99.90;;;;;;6227142;23;20236;-93
2021/09/30 08:52:29;;;;;;;1.97;1.40;;;13.70;99.90;;;;;;6230416;23;20176;-95
2021/09/30 08:58:11;;;;;;;4.13;1.37;;;13.70;99.90;;;;;;6228612;23;20172;-95
2021/09/30 09:00:47;;;;;;;2.83;1.70;;;13.70;99.90;;;;;;6226385;23;20179;-95
2021/09/30 09:03:23;;;;;;;2.70;1.60;;;13.70;99.90;;;;;;6229890;23;20251;-95
2021/09/30 09:05:54;;;;;;;3.23;1.63;;;13.70;99.90;;;;;;6221418;23;20176;-95
2021/09/30 09:08:28;;;;;;;4.30;1.50;;;13.70;99.90;;;;;;6221315;23;20615;-95
2021/09/30 09:11:07;;;;;;;1.90;1.30;;;13.70;99.90;;;;;;6221469;23;20176;-95
2021/09/30 09:13:38;;;;;;;3.87;1.77;;;13.70;99.90;;;;;;6221609;23;20183;-94
2021/09/30 09:16:13;;;;;;;2.57;1.50;;;13.70;99.90;;;;;;6221247;23;20206;-95
2021/09/30 09:18:46;;;;;;;2.10;1.40;;;13.70;99.90;;;;;;6222125;23;20176;-94
2021/09/30 09:21:23;;;;;;;3.20;1.20;;;13.80;99.90;;;;;;6232158;23;20185;-95
2021/09/30 09:23:58;;;;;;;1.87;1.30;;;13.80;99.90;;;;;;6241814;23;20168;-96
2021/09/30 09:26:33;;;;;;;2.53;1.30;;;13.80;99.90;;;;;;6242238;23;20194;-95
2021/09/30 09:29:09;;;;;;;1.50;1.20;;;13.80;99.90;;;;;;6241387;23;20176;-95
2021/09/30 09:31:48;;;;;;;1.77;1.33;;;13.80;99.90;;;;;;6242685;23;20156;-95
2021/09/30 09:34:31;;;;;;;1.60;1.20;;;13.90;99.90;;;;;;6240252;23;20169;-96
2021/09/30 09:37:19;;;;;;;2.07;1.20;;;13.80;99.90;;;;;;6241037;23;20195;-96
2021/09/30 09:39:51;;;;;;;2.73;1.20;;;14.00;99.90;;;;;;6242260;23;20219;-95
2021/09/30 09:42:28;;;;;;;2.53;1.00;;;14.00;99.90;;;;;;6242007;23;20171;-95
2021/09/30 09:45:04;;;;;;;2.37;1.10;;;14.00;99.90;;;;;;6240604;23;20168;-95
2021/09/30 09:47:40;;;;;;;1.40;1.20;;;14.00;99.90;;;;;;6234650;23;20180;-96
2021/09/30 09:50:19;;;;;;;1.40;0.90;;;14.00;99.90;;;;;;6233913;23;20180;-96
2021/09/30 09:52:53;;;;;;;4.23;1.10;;;14.00;99.90;;;;;;6233188;23;20183;-96
2021/09/30 09:55:31;;;;;;;1.67;1.20;;;14.00;99.90;;;;;;6235230;23;20266;-96
2021/09/30 09:58:07;;;;;;;1.93;0.93;;;14.10;99.90;;;;;;6238548;23;20168;-96
2021/09/30 10:00:40;;;;;;;1.23;1.00;;;14.10;99.90;;;;;;6240948;23;20157;-96
2021/09/30 10:03:19;;;;;;;1.50;1.03;;;14.10;99.90;;;;;;6238832;23;20165;-95
2021/09/30 10:05:52;;;;;;;0.90;0.80;;;14.20;99.90;;;;;;6238935;23;20188;-96
2021/09/30 10:08:23;;;;;;;1.10;0.80;;;14.20;99.90;;;;;;6232767;23;20181;-96
2021/09/30 10:10:55;;;;;;;1.23;0.70;;;14.20;99.90;;;;;;6225108;23;20657;-96
2021/09/30 10:13:32;;;;;;;1.33;0.77;;;14.20;99.90;;;;;;6223242;23;20227;-96
2021/09/30 10:16:04;;;;;;;1.10;0.90;;;14.20;99.90;;;;;;6223319;23;20540;-95
2021/09/30 10:18:38;;;;;;;0.70;0.70;;;14.30;99.90;;;;;;6225708;23;20176;-94
2021/09/30 10:21:11;;;;;;;1.50;0.80;;;14.30;99.90;;;;;;6230321;23;20669;-94
2021/09/30 10:23:42;;;;;;;1.30;0.87;;;14.30;99.90;;;;;;6226195;23;20215;-96
2021/09/30 10:26:16;;;;;;;1.53;1.00;;;14.30;99.90;;;;;;6224508;23;20196;-95
2021/09/30 10:28:49;;;;;;;1.40;0.73;;;14.30;99.90;;;;;;6226237;23;20178;-95
2021/09/30 10:31:27;;;;;;;1.30;1.00;;;14.30;99.90;;;;;;6224233;23;20177;-95
2021/09/30 10:34:03;;;;;;;0.80;0.80;;;14.30;99.90;;;;;;6223996;23;20165;-95
2021/09/30 10:36:44;;;;;;;1.50;0.80;;;14.30;99.90;;;;;;6224356;23;20195;-95
2021/09/30 10:39:35;;;;;;;1.80;0.83;;;14.30;99.90;;;;;;6223991;23;20614;-95
2021/09/30 10:42:07;;;;;;;3.33;0.93;;;14.30;99.90;;;;;;6224328;23;20184;-96
2021/09/30 10:44:39;;;;;;;1.77;0.90;;;14.30;99.90;;;;;;6223405;23;20170;-96
2021/09/30 10:47:11;;;;;;;1.50;0.60;;;14.30;99.90;;;;;;6225798;23;20180;-96
2021/09/30 10:49:51;;;;;;;1.50;0.83;;;14.30;99.90;;;;;;6231255;23;20264;-96
2021/09/30 10:52:29;;;;;;;0.83;0.80;;;14.30;99.90;;;;;;6222738;23;20172;-95
2021/09/30 10:55:28;;;;;;;1.63;0.90;;;14.40;99.90;;;;;;6221761;23;20177;-96
2021/09/30 10:58:03;;;;;;;1.77;0.70;;;14.40;99.90;;;;;;6223994;23;20177;-96
2021/09/30 11:00:55;;;;;;;1.00;0.63;;;14.50;99.90;;;;;;6222584;23;20176;-96
2021/09/30 11:03:27;;;;;;;0.70;0.70;;;14.50;99.90;;;;;;6223057;23;20231;-96
2021/09/30 11:06:31;;;;;;;1.23;0.60;;;14.50;99.90;;;;;;6221254;23;20207;-96
2021/09/30 11:09:18;;;;;;;0.90;0.90;;;14.60;99.90;;;;;;6220050;23;20180;-96
2021/09/30 11:11:52;;;;;;;2.03;1.00;;;14.60;99.90;;;;;;6223579;23;20176;-96
2021/09/30 11:14:29;;;;;;;0.87;0.60;;;14.60;99.90;;;;;;6222308;23;20184;-95
2021/09/30 11:17:00;;;;;;;1.43;0.80;;;14.60;99.90;;;;;;6221531;23;20200;-95
2021/09/30 11:19:51;;;;;;;0.97;0.77;;;14.60;99.90;;;;;;6221515;23;20177;-95
2021/09/30 11:22:39;;;;;;;1.30;0.60;;;14.60;99.90;;;;;;6220910;23;20200;-96
2021/09/30 11:25:11;;;;;;;1.30;0.80;;;14.60;99.90;;;;;;6220656;23;20199;-95
2021/09/30 11:27:48;;;;;;;1.23;0.80;;;14.60;99.90;;;;;;6220702;23;20182;-95
2021/09/30 11:30:27;;;;;;;1.37;0.90;;;14.60;99.90;;;;;;6221634;23;20591;-95
2021/09/30 11:33:00;;;;;;;1.00;0.80;;;14.60;99.90;;;;;;6223765;23;20176;-95
2021/09/30 11:35:36;;;;;;;1.07;0.60;;;14.60;99.90;;;;;;6221230;23;20196;-95
2021/09/30 11:38:16;;;;;;;0.60;0.60;;;14.70;99.90;;;;;;6222085;23;20176;-95
2021/09/30 11:40:50;;;;;;;1.00;0.60;;;14.70;99.90;;;;;;6222276;23;20529;-95
2021/09/30 11:43:24;;;;;;;1.10;0.60;;;14.80;99.90;;;;;;6221721;23;20187;-94
2021/09/30 11:45:56;;;;;;;1.40;1.30;;;14.70;99.90;;;;;;6222233;23;20171;-95
2021/09/30 11:48:28;;;;;;;2.07;0.70;;;14.80;99.90;;;;;;6222346;23;20246;-95
2021/09/30 11:51:00;;;;;;;1.77;0.40;;;14.90;99.90;;;;;;6222562;23;20190;-93
2021/09/30 11:53:33;;;;;;;0.73;0.50;;;14.90;99.90;;;;;;6222458;23;20176;-94
2021/09/30 11:56:10;;;;;;;0.53;0.53;;;14.90;99.90;;;;;;6224484;23;20196;-95
2021/09/30 11:58:42;;;;;;;2.20;0.67;;;14.90;99.90;;;;;;6241915;23;20187;-95
2021/09/30 12:01:15;;;;;;;0.83;0.70;;;14.90;99.90;;;;;;6241431;23;20160;-95
2021/09/30 12:03:47;;;;;;;0.87;0.57;;;14.90;99.90;;;;;;6229698;23;20172;-94
2021/09/30 12:06:18;;;;;;;0.80;0.60;;;14.90;99.90;;;;;;6223029;23;20626;-95
2021/09/30 12:09:02;;;;;;;0.90;0.50;;;14.90;99.90;;;;;;6223181;23;20176;-95
2021/09/30 12:11:35;;;;;;;0.67;0.50;;;14.90;99.90;;;;;;6223308;23;20499;-95
2021/09/30 12:14:10;;;;;;;0.90;0.90;;;14.90;99.90;;;;;;6220896;23;20177;-95
2021/09/30 12:16:55;;;;;;;4.50;4.30;;;14.90;99.90;;;;;;6219946;23;20196;-93
2021/09/30 12:19:32;;;;;;;1.13;0.50;;;15.00;99.90;;;;;;6220236;23;20673;-94
2021/09/30 12:22:09;;;;;;;0.97;0.50;;;15.00;99.90;;;;;;6219587;23;20262;-93
2021/09/30 12:24:47;;;;;;;2.20;0.87;;;14.90;99.90;;;;;;6218815;23;20191;-94
2021/09/30 12:27:19;;;;;;;2.10;0.73;;;14.90;99.90;;;;;;6219919;23;20176;-93
2021/09/30 12:29:53;;;;;;;4.17;3.97;;;14.90;99.90;;;;;;6217772;23;20176;-94
2021/09/30 12:32:28;;;;;;;1.00;0.50;;;14.90;99.90;;;;;;6220861;23;20176;-94
2021/09/30 12:35:09;;;;;;;0.57;0.40;;;14.90;99.90;;;;;;6219710;23;20208;-93
2021/09/30 12:37:45;;;;;;;1.30;1.20;;;15.00;99.90;;;;;;6219804;23;20333;-94
2021/09/30 12:40:22;;;;;;;2.50;2.40;;;15.00;99.90;;;;;;6223497;23;20179;-94
2021/09/30 12:43:08;;;;;;;1.00;0.40;;;15.00;99.90;;;;;;6221250;23;20164;-94
2021/09/30 12:45:42;;;;;;;0.67;0.50;;;15.10;99.90;;;;;;6219725;23;20194;-95
2021/09/30 12:48:16;;;;;;;0.80;0.70;;;15.10;99.90;;;;;;6221629;23;20176;-95
2021/09/30 12:50:51;;;;;;;0.30;0.30;;;15.10;99.90;;;;;;6221343;23;20202;-95
2021/09/30 12:53:24;;;;;;;1.07;0.50;;;15.10;99.90;;;;;;6220265;23;20368;-94
2021/09/30 12:56:08;;;;;;;0.57;0.40;;;15.20;99.90;;;;;;6220100;23;20223;-95
2021/09/30 12:58:42;;;;;;;0.60;0.40;;;15.20;99.90;;;;;;6219498;23;20173;-95
2021/09/30 13:01:30;;;;;;;1.37;0.57;;;15.10;99.90;;;;;;6220423;23;20195;-95
2021/09/30 13:04:11;;;;;;;0.30;0.30;;;15.20;99.90;;;;;;6220820;23;20180;-95
2021/09/30 13:06:54;;;;;;;0.40;0.37;;;15.10;99.90;;;;;;6220679;23;20176;-96
2021/09/30 13:09:28;;;;;;;1.40;0.47;;;15.20;99.90;;;;;;6220710;23;20176;-95
2021/09/30 13:12:04;;;;;;;0.93;0.50;;;15.20;99.90;;;;;;6221430;23;20192;-95
2021/09/30 13:14:36;;;;;;;0.30;0.30;;;15.20;99.90;;;;;;6220466;23;20187;-95
2021/09/30 13:17:15;;;;;;;2.77;0.60;;;15.20;99.90;;;;;;6221198;23;20272;-95
2021/09/30 13:19:52;;;;;;;0.80;0.30;;;15.30;99.90;;;;;;6221009;23;20180;-95
2021/09/30 13:22:24;;;;;;;1.57;1.47;;;15.30;99.90;;;;;;6225692;23;20513;-94
2021/09/30 13:24:57;;;;;;;0.83;0.77;;;15.30;99.90;;;;;;6220345;23;20254;-93
2021/09/30 13:27:32;;;;;;;1.37;0.40;;;15.40;99.90;;;;;;6222995;23;20631;-94
2021/09/30 13:30:14;;;;;;;1.23;0.40;;;15.40;99.90;;;;;;6222794;23;20179;-95
2021/09/30 13:32:47;;;;;;;0.63;0.40;;;15.40;99.90;;;;;;6228451;23;20184;-94
2021/09/30 13:35:23;;;;;;;0.83;0.40;;;15.50;99.90;;;;;;6221771;23;20184;-95
2021/09/30 13:37:56;;;;;;;0.60;0.40;;;15.40;99.90;;;;;;6222814;23;20203;-94
2021/09/30 13:40:28;;;;;;;0.50;0.30;;;15.50;99.90;;;;;;6223315;23;20219;-94
2021/09/30 13:43:05;;;;;;;0.30;0.20;;;15.50;99.90;;;;;;6227440;23;20176;-95
2021/09/30 13:45:37;;;;;;;0.40;0.40;;;15.50;99.90;;;;;;6223305;23;20176;-95
2021/09/30 13:48:18;;;;;;;0.70;0.40;;;15.60;99.90;;;;;;6223774;23;20228;-96
2021/09/30 13:50:50;;;;;;;0.47;0.40;;;15.60;99.90;;;;;;6226433;23;20176;-96
2021/09/30 13:53:23;;;;;;;0.47;0.40;;;15.50;99.90;;;;;;6227187;23;20172;-96
2021/09/30 13:55:54;;;;;;;0.43;0.43;;;15.50;99.90;;;;;;6226402;23;20242;-95
2021/09/30 13:58:32;;;;;;;1.27;0.37;;;15.50;99.90;;;;;;6229004;23;20203;-96
2021/09/30 14:01:05;;;;;;;0.50;0.40;;;15.50;99.90;;;;;;6235362;23;20227;-96
2021/09/30 14:03:37;;;;;;;0.97;0.50;;;15.50;99.90;;;;;;6244281;23;20199;-96
2021/09/30 14:06:09;;;;;;;1.37;0.50;;;15.40;99.90;;;;;;6243543;23;20195;-96
2021/09/30 14:08:41;;;;;;;1.77;0.40;;;15.40;99.90;;;;;;6243838;23;20164;-95
2021/09/30 14:11:14;;;;;;;0.53;0.53;;;15.50;99.90;;;;;;6243869;23;20186;-96
2021/09/30 14:13:55;;;;;;;1.33;0.60;;;15.50;99.90;;;;;;6244015;23;20199;-96
2021/09/30 14:16:27;;;;;;;1.30;0.50;;;15.60;99.90;;;;;;6242639;23;20160;-96
2021/09/30 14:18:58;;;;;;;0.73;0.40;;;15.60;99.90;;;;;;6234801;23;20204;-96
2021/09/30 14:21:43;;;;;;;0.73;0.30;;;15.60;99.90;;;;;;6231902;23;20164;-96
2021/09/30 14:24:14;;;;;;;0.67;0.30;;;15.60;99.90;;;;;;6232983;23;20175;-96
2021/09/30 14:26:48;;;;;;;0.40;0.40;;;15.60;99.90;;;;;;6236332;23;20319;-96
2021/09/30 14:32:14;;;;;;;0.30;0.30;;;15.60;99.90;;;;;;6228857;23;20180;-96
2021/09/30 14:34:49;;;;;;;0.30;0.30;;;15.60;99.90;;;;;;6224577;23;20180;-96
2021/09/30 14:37:20;;;;;;;0.40;0.40;;;15.70;99.90;;;;;;6229515;23;20207;-96
2021/09/30 14:39:52;;;;;;;0.40;0.40;;;15.70;99.90;;;;;;6235564;23;20185;-95
2021/09/30 14:42:24;;;;;;;1.23;0.40;;;15.80;99.90;;;;;;6236331;23;20208;-96
2021/09/30 14:44:58;;;;;;;0.93;0.50;;;15.80;99.90;;;;;;6228917;23;20180;-96
2021/09/30 14:47:30;;;;;;;0.40;0.40;;;15.80;99.90;;;;;;6241174;23;20175;-95
2021/09/30 14:50:03;;;;;;;0.43;0.40;;;15.80;99.90;;;;;;6242763;23;20211;-94
2021/09/30 14:52:36;;;;;;;1.87;0.40;;;15.80;99.90;;;;;;6242519;23;20180;-96
2021/09/30 14:55:10;;;;;;;2.27;0.50;;;15.70;99.90;;;;;;6231971;23;20596;-95
2021/09/30 14:57:42;;;;;;;0.87;0.40;;;15.80;99.90;;;;;;6235031;23;20209;-96
2021/09/30 15:00:17;;;;;;;0.87;0.40;;;15.70;99.90;;;;;;6238043;23;20195;-96
2021/09/30 15:02:50;;;;;;;0.93;0.37;;;15.70;99.90;;;;;;6234449;23;20199;-96
2021/09/30 15:05:22;;;;;;;0.53;0.40;;;15.80;99.90;;;;;;6233397;23;20177;-95
2021/09/30 15:07:55;;;;;;;0.50;0.37;;;15.80;99.90;;;;;;6226870;23;20180;-95
2021/09/30 15:10:28;;;;;;;1.57;0.50;;;15.80;99.90;;;;;;6232090;23;20600;-95
2021/09/30 15:13:04;;;;;;;0.47;0.47;;;15.80;99.90;;;;;;6234653;23;20188;-95
2021/09/30 15:15:51;;;;;;;0.83;0.40;;;15.80;99.90;;;;;;6235872;23;20593;-95
2021/09/30 15:18:39;;;;;;;2.30;0.37;;;15.80;99.90;;;;;;6234158;23;20231;-96
2021/09/30 15:21:24;;;;;;;0.40;0.33;;;15.90;99.90;;;;;;6236313;23;20165;-96
2021/09/30 15:24:00;;;;;;;5.63;0.57;;;15.90;99.90;;;;;;6234261;23;20194;-95
2021/09/30 15:26:33;;;;;;;0.40;0.30;;;16.00;99.90;;;;;;6233000;23;20165;-96
2021/09/30 15:29:06;;;;;;;0.77;0.30;;;16.00;99.90;;;;;;6233440;23;20180;-96
2021/09/30 15:31:43;;;;;;;1.27;0.30;;;16.20;99.90;;;;;;6237949;23;20174;-93
2021/09/30 15:37:05;;;;;;;0.83;0.30;;;16.30;99.90;;;;;;6274887;22;20237;-95
2021/09/30 15:39:37;;;;;;;1.27;0.43;;;16.30;99.90;;;;;;6287798;22;20199;-95
2021/09/30 15:42:12;;;;;;;0.30;0.30;;;16.40;99.90;;;;;;6282417;22;20197;-95
2021/09/30 15:44:44;;;;;;;0.20;0.20;;;16.40;99.90;;;;;;6286646;22;20186;-95
2021/09/30 15:47:19;;;;;;;10.00;1.40;;;16.50;99.90;;;;;;6261139;22;20658;-96
2021/09/30 15:49:50;;;;;;;2.87;0.90;;;16.50;99.90;;;;;;6221891;23;20176;-96
2021/09/30 15:52:22;;;;;;;0.30;0.17;;;16.60;99.90;;;;;;6198864;23;20180;-96
2021/09/30 15:54:54;;;;;;;0.93;0.40;;;16.70;99.90;;;;;;6206185;23;20634;-95
2021/09/30 15:57:27;;;;;;;1.50;0.40;;;16.70;99.90;;;;;;6226459;23;20172;-96
2021/09/30 15:59:58;;;;;;;0.40;0.33;;;16.70;99.90;;;;;;6230821;23;20209;-95
2021/09/30 16:03:05;;;;;;;0.40;0.30;;;16.70;99.90;;;;;;6227269;23;20215;-96
2021/09/30 16:05:38;;;;;;;1.03;0.33;;;16.70;99.90;;;;;;6222840;23;20210;-96
2021/09/30 16:08:12;;;;;;;0.50;0.50;;;16.70;99.90;;;;;;6215569;23;20308;-95
2021/09/30 16:10:44;;;;;;;0.47;0.20;;;16.70;99.90;;;;;;6237875;23;20177;-96
2021/09/30 16:13:15;;;;;;;1.23;0.30;;;16.80;99.90;;;;;;6209424;23;20168;-95
2021/09/30 16:15:46;;;;;;;0.70;0.30;;;16.80;99.90;;;;;;6233853;23;20169;-94
2021/09/30 16:18:18;;;;;;;0.60;0.40;;;16.80;99.90;;;;;;6234116;23;20532;-95
2021/09/30 16:20:52;;;;;;;0.40;0.40;;;16.80;99.90;;;;;;6223287;23;20234;-94
2021/09/30 16:23:24;;;;;;;0.63;0.40;;;16.90;99.90;;;;;;6231748;23;20180;-94
2021/09/30 16:25:59;;;;;;;0.53;0.40;;;16.90;99.90;;;;;;6242185;23;20216;-94
2021/09/30 16:28:32;;;;;;;0.50;0.40;;;16.80;99.90;;;;;;6217284;23;20183;-95
2021/09/30 16:31:06;;;;;;;0.93;0.40;;;16.80;99.90;;;;;;6230938;23;20187;-93
2021/09/30 16:33:37;;;;;;;0.47;0.40;;;16.80;99.90;;;;;;6211429;23;20176;-95
2021/09/30 16:36:16;;;;;;;0.83;0.40;;;16.90;99.90;;;;;;6234961;22;20203;-96
2021/09/30 16:38:49;;;;;;;0.43;0.33;;;16.90;99.90;;;;;;6220575;23;20227;-95
2021/09/30 16:41:20;;;;;;;0.63;0.40;;;16.80;99.90;;;;;;6220436;23;20191;-95
2021/09/30 16:43:51;;;;;;;1.50;0.33;;;16.90;99.90;;;;;;6221121;23;20181;-95